This is the latest recevied weather packets stored in our database for station/object OM2RC-6. If no packets are shown the sender has not sent any weather packets the latest 10 day(s).
| Time | Temp. | Humidity | Pressure | Rain* | Wind** | Luminosity | Snow |
|---|---|---|---|---|---|---|---|
| 1777883846 | 18.89° C | 58% | 1017.7 hPa | - | - | - | - |
| 1777883527 | 18.89° C | 59% | 1017.6 hPa | - | - | - | - |
| 1777883208 | 17.78° C | 60% | 1017.4 hPa | - | - | - | - |
| 1777882889 | 17.78° C | 59% | 1017.6 hPa | - | - | - | - |
| 1777882570 | 18.33° C | 58% | 1017.5 hPa | - | - | - | - |
| 1777882250 | 17.78° C | 60% | 1017.4 hPa | - | - | - | - |
| 1777881931 | 17.22° C | 59% | 1017.3 hPa | - | - | - | - |
| 1777881612 | 17.78° C | 60% | 1017.6 hPa | - | - | - | - |
| 1777881293 | 17.22° C | 61% | 1017.5 hPa | - | - | - | - |
| 1777880974 | 17.78° C | 60% | 1017.6 hPa | - | - | - | - |
| 1777880657 | 17.22° C | 60% | 1017.5 hPa | - | - | - | - |
| 1777880336 | 17.22° C | 60% | 1017.5 hPa | - | - | - | - |
| 1777880017 | 17.22° C | 59% | 1017.3 hPa | - | - | - | - |
| 1777879698 | 17.22° C | 60% | 1017.2 hPa | - | - | - | - |
| 1777879379 | 16.67° C | 61% | 1017.1 hPa | - | - | - | - |
| 1777879060 | 16.67° C | 61% | 1017 hPa | - | - | - | - |
| 1777878740 | 16.11° C | 61% | 1016.8 hPa | - | - | - | - |
| 1777878422 | 16.11° C | 62% | 1016.9 hPa | - | - | - | - |
| 1777878103 | 16.11° C | 62% | 1016.9 hPa | - | - | - | - |
| 1777876879 | 15.56° C | 64% | 1016.9 hPa | - | - | - | - |
| 1777876578 | 15° C | 65% | 1016.6 hPa | - | - | - | - |
| 1777876277 | 15° C | 65% | 1016.9 hPa | - | - | - | - |
| 1777875976 | 15° C | 65% | 1017 hPa | - | - | - | - |
| 1777875675 | 15° C | 65% | 1016.8 hPa | - | - | - | - |
| 1777875374 | 15° C | 66% | 1016.9 hPa | - | - | - | - |
* Rain since midnight (hover to see other rain measurements)
** Current wind speed in m/s (hover to see current wind gust speed)